sensor_id;sensor_type;location;lat;lon;timestamp;P1;durP1;ratioP1;P2;durP2;ratioP2
20649;SDS011;10484;48.736;9.332;2024-01-06T00:01:01;4.30;;;3.90;;
20649;SDS011;10484;48.736;9.332;2024-01-06T00:03:26;3.97;;;3.47;;
20649;SDS011;10484;48.736;9.332;2024-01-06T00:05:52;5.60;;;4.10;;
20649;SDS011;10484;48.736;9.332;2024-01-06T00:08:17;4.80;;;4.40;;
20649;SDS011;10484;48.736;9.332;2024-01-06T00:10:43;3.73;;;3.30;;
20649;SDS011;10484;48.736;9.332;2024-01-06T00:13:09;4.83;;;4.33;;
20649;SDS011;10484;48.736;9.332;2024-01-06T00:15:35;4.75;;;3.60;;
20649;SDS011;10484;48.736;9.332;2024-01-06T00:18:01;4.03;;;3.20;;
20649;SDS011;10484;48.736;9.332;2024-01-06T00:20:26;5.33;;;3.80;;
20649;SDS011;10484;48.736;9.332;2024-01-06T00:22:52;5.80;;;3.40;;
20649;SDS011;10484;48.736;9.332;2024-01-06T00:25:18;6.87;;;3.67;;
20649;SDS011;10484;48.736;9.332;2024-01-06T00:27:43;4.13;;;2.70;;
20649;SDS011;10484;48.736;9.332;2024-01-06T00:30:09;4.60;;;2.77;;
20649;SDS011;10484;48.736;9.332;2024-01-06T00:32:35;4.40;;;3.50;;
20649;SDS011;10484;48.736;9.332;2024-01-06T00:35:00;4.90;;;2.90;;
20649;SDS011;10484;48.736;9.332;2024-01-06T00:37:26;3.90;;;2.83;;
20649;SDS011;10484;48.736;9.332;2024-01-06T00:39:51;3.23;;;2.90;;
20649;SDS011;10484;48.736;9.332;2024-01-06T00:42:17;4.07;;;2.93;;
20649;SDS011;10484;48.736;9.332;2024-01-06T00:44:42;4.60;;;2.57;;
20649;SDS011;10484;48.736;9.332;2024-01-06T00:47:10;3.13;;;2.80;;
20649;SDS011;10484;48.736;9.332;2024-01-06T00:49:36;2.70;;;2.20;;
20649;SDS011;10484;48.736;9.332;2024-01-06T00:52:01;4.00;;;2.93;;
20649;SDS011;10484;48.736;9.332;2024-01-06T00:54:27;3.13;;;2.57;;
20649;SDS011;10484;48.736;9.332;2024-01-06T00:56:52;4.50;;;2.90;;
20649;SDS011;10484;48.736;9.332;2024-01-06T00:59:18;2.83;;;2.47;;
20649;SDS011;10484;48.736;9.332;2024-01-06T01:01:43;3.33;;;2.43;;
20649;SDS011;10484;48.736;9.332;2024-01-06T01:04:09;3.57;;;2.10;;
20649;SDS011;10484;48.736;9.332;2024-01-06T01:06:36;3.33;;;2.50;;
20649;SDS011;10484;48.736;9.332;2024-01-06T01:09:02;2.03;;;1.88;;
20649;SDS011;10484;48.736;9.332;2024-01-06T01:11:29;4.57;;;2.53;;
20649;SDS011;10484;48.736;9.332;2024-01-06T01:13:55;3.30;;;2.27;;
20649;SDS011;10484;48.736;9.332;2024-01-06T01:16:20;2.93;;;2.63;;
20649;SDS011;10484;48.736;9.332;2024-01-06T01:18:46;5.80;;;1.97;;
20649;SDS011;10484;48.736;9.332;2024-01-06T01:21:12;2.43;;;2.23;;
20649;SDS011;10484;48.736;9.332;2024-01-06T01:23:37;3.47;;;1.80;;
20649;SDS011;10484;48.736;9.332;2024-01-06T01:26:03;2.57;;;2.00;;
20649;SDS011;10484;48.736;9.332;2024-01-06T01:28:28;2.70;;;2.10;;
20649;SDS011;10484;48.736;9.332;2024-01-06T01:30:54;3.80;;;1.80;;
20649;SDS011;10484;48.736;9.332;2024-01-06T01:33:20;2.50;;;2.00;;
20649;SDS011;10484;48.736;9.332;2024-01-06T01:35:45;2.27;;;2.00;;
20649;SDS011;10484;48.736;9.332;2024-01-06T01:38:11;3.20;;;1.93;;
20649;SDS011;10484;48.736;9.332;2024-01-06T01:40:36;2.50;;;1.77;;
20649;SDS011;10484;48.736;9.332;2024-01-06T01:43:02;3.63;;;1.80;;
20649;SDS011;10484;48.736;9.332;2024-01-06T01:45:27;2.80;;;2.20;;
20649;SDS011;10484;48.736;9.332;2024-01-06T01:47:53;2.43;;;2.23;;
20649;SDS011;10484;48.736;9.332;2024-01-06T01:50:19;3.67;;;2.00;;
20649;SDS011;10484;48.736;9.332;2024-01-06T01:52:45;3.88;;;2.30;;
20649;SDS011;10484;48.736;9.332;2024-01-06T01:55:11;3.03;;;2.25;;
20649;SDS011;10484;48.736;9.332;2024-01-06T01:57:37;4.50;;;1.83;;
20649;SDS011;10484;48.736;9.332;2024-01-06T02:00:03;2.80;;;2.00;;
20649;SDS011;10484;48.736;9.332;2024-01-06T02:02:29;5.73;;;2.53;;
20649;SDS011;10484;48.736;9.332;2024-01-06T02:04:55;2.60;;;2.00;;
20649;SDS011;10484;48.736;9.332;2024-01-06T02:07:21;3.13;;;2.33;;
20649;SDS011;10484;48.736;9.332;2024-01-06T02:09:46;2.50;;;1.73;;
20649;SDS011;10484;48.736;9.332;2024-01-06T02:12:12;3.63;;;2.47;;
20649;SDS011;10484;48.736;9.332;2024-01-06T02:14:38;3.30;;;2.23;;
20649;SDS011;10484;48.736;9.332;2024-01-06T02:17:03;2.40;;;2.10;;
20649;SDS011;10484;48.736;9.332;2024-01-06T02:19:29;5.53;;;2.83;;
20649;SDS011;10484;48.736;9.332;2024-01-06T02:21:54;3.00;;;2.23;;
20649;SDS011;10484;48.736;9.332;2024-01-06T02:24:20;2.73;;;2.00;;
20649;SDS011;10484;48.736;9.332;2024-01-06T02:26:46;6.88;;;3.00;;
20649;SDS011;10484;48.736;9.332;2024-01-06T02:29:12;2.47;;;2.27;;
20649;SDS011;10484;48.736;9.332;2024-01-06T02:31:37;4.97;;;2.60;;
20649;SDS011;10484;48.736;9.332;2024-01-06T02:34:03;3.93;;;2.53;;
20649;SDS011;10484;48.736;9.332;2024-01-06T02:36:28;3.90;;;2.60;;
20649;SDS011;10484;48.736;9.332;2024-01-06T02:38:54;3.40;;;2.60;;
20649;SDS011;10484;48.736;9.332;2024-01-06T02:41:19;4.10;;;2.77;;
20649;SDS011;10484;48.736;9.332;2024-01-06T02:43:46;3.60;;;2.90;;
20649;SDS011;10484;48.736;9.332;2024-01-06T02:46:11;4.07;;;2.28;;
20649;SDS011;10484;48.736;9.332;2024-01-06T02:48:37;4.40;;;3.07;;
20649;SDS011;10484;48.736;9.332;2024-01-06T02:51:03;5.70;;;2.53;;
20649;SDS011;10484;48.736;9.332;2024-01-06T02:53:28;4.03;;;2.70;;
20649;SDS011;10484;48.736;9.332;2024-01-06T02:55:54;3.60;;;3.17;;
20649;SDS011;10484;48.736;9.332;2024-01-06T02:58:19;3.50;;;2.40;;
20649;SDS011;10484;48.736;9.332;2024-01-06T03:00:45;4.40;;;2.53;;
20649;SDS011;10484;48.736;9.332;2024-01-06T03:03:11;3.03;;;2.47;;
20649;SDS011;10484;48.736;9.332;2024-01-06T03:05:36;3.30;;;2.77;;
20649;SDS011;10484;48.736;9.332;2024-01-06T03:08:02;3.60;;;2.50;;
20649;SDS011;10484;48.736;9.332;2024-01-06T03:10:28;3.30;;;2.75;;
20649;SDS011;10484;48.736;9.332;2024-01-06T03:12:54;4.97;;;2.87;;
20649;SDS011;10484;48.736;9.332;2024-01-06T03:15:19;1.70;;;1.40;;
20649;SDS011;10484;48.736;9.332;2024-01-06T03:17:45;2.83;;;2.30;;
20649;SDS011;10484;48.736;9.332;2024-01-06T03:20:10;2.73;;;2.30;;
20649;SDS011;10484;48.736;9.332;2024-01-06T03:22:36;4.67;;;2.20;;
20649;SDS011;10484;48.736;9.332;2024-01-06T03:25:03;4.25;;;2.25;;
20649;SDS011;10484;48.736;9.332;2024-01-06T03:27:29;2.75;;;2.47;;
20649;SDS011;10484;48.736;9.332;2024-01-06T03:29:54;3.60;;;2.03;;
20649;SDS011;10484;48.736;9.332;2024-01-06T03:32:21;4.80;;;2.37;;
20649;SDS011;10484;48.736;9.332;2024-01-06T03:34:47;2.22;;;1.83;;
20649;SDS011;10484;48.736;9.332;2024-01-06T03:37:12;3.50;;;2.40;;
20649;SDS011;10484;48.736;9.332;2024-01-06T03:39:38;4.87;;;2.43;;
20649;SDS011;10484;48.736;9.332;2024-01-06T03:42:03;2.87;;;2.37;;
20649;SDS011;10484;48.736;9.332;2024-01-06T03:44:29;4.00;;;2.03;;
20649;SDS011;10484;48.736;9.332;2024-01-06T03:46:57;2.13;;;1.50;;
20649;SDS011;10484;48.736;9.332;2024-01-06T03:49:23;3.43;;;2.57;;
20649;SDS011;10484;48.736;9.332;2024-01-06T03:51:49;3.17;;;2.20;;
20649;SDS011;10484;48.736;9.332;2024-01-06T03:54:14;2.60;;;2.00;;
20649;SDS011;10484;48.736;9.332;2024-01-06T03:56:40;2.13;;;1.93;;
20649;SDS011;10484;48.736;9.332;2024-01-06T03:59:06;2.73;;;1.70;;
20649;SDS011;10484;48.736;9.332;2024-01-06T04:01:32;2.40;;;2.15;;
20649;SDS011;10484;48.736;9.332;2024-01-06T04:04:00;3.13;;;1.73;;
20649;SDS011;10484;48.736;9.332;2024-01-06T04:06:27;3.63;;;1.73;;
20649;SDS011;10484;48.736;9.332;2024-01-06T04:08:52;2.20;;;1.87;;
20649;SDS011;10484;48.736;9.332;2024-01-06T04:11:21;2.97;;;2.58;;
20649;SDS011;10484;48.736;9.332;2024-01-06T04:13:46;2.60;;;1.90;;
20649;SDS011;10484;48.736;9.332;2024-01-06T04:16:12;5.90;;;2.20;;
20649;SDS011;10484;48.736;9.332;2024-01-06T04:18:38;4.10;;;1.70;;
20649;SDS011;10484;48.736;9.332;2024-01-06T04:21:03;1.93;;;1.73;;
20649;SDS011;10484;48.736;9.332;2024-01-06T04:23:30;1.90;;;1.70;;
20649;SDS011;10484;48.736;9.332;2024-01-06T04:25:55;3.10;;;2.00;;
20649;SDS011;10484;48.736;9.332;2024-01-06T04:28:21;1.67;;;1.57;;
20649;SDS011;10484;48.736;9.332;2024-01-06T04:30:47;2.17;;;1.80;;
20649;SDS011;10484;48.736;9.332;2024-01-06T04:33:12;2.40;;;1.87;;
20649;SDS011;10484;48.736;9.332;2024-01-06T04:35:38;2.33;;;1.67;;
20649;SDS011;10484;48.736;9.332;2024-01-06T04:38:04;3.90;;;1.90;;
20649;SDS011;10484;48.736;9.332;2024-01-06T04:40:29;3.30;;;1.80;;
20649;SDS011;10484;48.736;9.332;2024-01-06T04:42:55;2.70;;;1.77;;
20649;SDS011;10484;48.736;9.332;2024-01-06T04:45:21;3.20;;;1.97;;
20649;SDS011;10484;48.736;9.332;2024-01-06T04:47:49;3.80;;;1.60;;
20649;SDS011;10484;48.736;9.332;2024-01-06T04:50:15;2.65;;;1.60;;
20649;SDS011;10484;48.736;9.332;2024-01-06T04:52:40;3.00;;;1.73;;
20649;SDS011;10484;48.736;9.332;2024-01-06T04:55:06;2.53;;;1.53;;
20649;SDS011;10484;48.736;9.332;2024-01-06T04:57:32;2.57;;;1.73;;
20649;SDS011;10484;48.736;9.332;2024-01-06T04:59:57;4.40;;;1.60;;
20649;SDS011;10484;48.736;9.332;2024-01-06T05:02:23;2.97;;;1.70;;
20649;SDS011;10484;48.736;9.332;2024-01-06T05:04:49;3.33;;;2.07;;
20649;SDS011;10484;48.736;9.332;2024-01-06T05:07:14;4.20;;;1.60;;
20649;SDS011;10484;48.736;9.332;2024-01-06T05:09:40;2.60;;;1.87;;
20649;SDS011;10484;48.736;9.332;2024-01-06T05:12:06;3.57;;;1.80;;
20649;SDS011;10484;48.736;9.332;2024-01-06T05:14:32;3.78;;;1.55;;
20649;SDS011;10484;48.736;9.332;2024-01-06T05:16:57;4.20;;;1.70;;
20649;SDS011;10484;48.736;9.332;2024-01-06T05:19:23;4.70;;;1.70;;
20649;SDS011;10484;48.736;9.332;2024-01-06T05:21:49;3.57;;;1.70;;
20649;SDS011;10484;48.736;9.332;2024-01-06T05:24:15;3.67;;;1.83;;
20649;SDS011;10484;48.736;9.332;2024-01-06T05:26:40;2.47;;;1.30;;
20649;SDS011;10484;48.736;9.332;2024-01-06T05:29:06;3.30;;;1.43;;
20649;SDS011;10484;48.736;9.332;2024-01-06T05:31:32;5.45;;;1.95;;
20649;SDS011;10484;48.736;9.332;2024-01-06T05:33:58;2.57;;;1.60;;
20649;SDS011;10484;48.736;9.332;2024-01-06T05:36:23;1.73;;;1.57;;
20649;SDS011;10484;48.736;9.332;2024-01-06T05:38:49;8.53;;;1.77;;
20649;SDS011;10484;48.736;9.332;2024-01-06T05:41:15;4.27;;;1.30;;
20649;SDS011;10484;48.736;9.332;2024-01-06T05:43:40;2.93;;;1.60;;
20649;SDS011;10484;48.736;9.332;2024-01-06T05:46:07;4.53;;;1.70;;
20649;SDS011;10484;48.736;9.332;2024-01-06T05:48:32;2.30;;;1.50;;
20649;SDS011;10484;48.736;9.332;2024-01-06T05:50:58;2.57;;;1.53;;
20649;SDS011;10484;48.736;9.332;2024-01-06T05:53:24;2.60;;;1.80;;
20649;SDS011;10484;48.736;9.332;2024-01-06T05:55:49;3.20;;;1.80;;
20649;SDS011;10484;48.736;9.332;2024-01-06T05:58:15;1.20;;;1.07;;
20649;SDS011;10484;48.736;9.332;2024-01-06T06:00:41;2.77;;;1.60;;
20649;SDS011;10484;48.736;9.332;2024-01-06T06:03:06;2.07;;;0.90;;
20649;SDS011;10484;48.736;9.332;2024-01-06T06:05:32;2.63;;;1.50;;
20649;SDS011;10484;48.736;9.332;2024-01-06T06:07:58;1.50;;;1.23;;
20649;SDS011;10484;48.736;9.332;2024-01-06T06:10:24;2.10;;;1.50;;
20649;SDS011;10484;48.736;9.332;2024-01-06T06:12:55;4.80;;;2.10;;
20649;SDS011;10484;48.736;9.332;2024-01-06T06:15:20;2.87;;;1.40;;
20649;SDS011;10484;48.736;9.332;2024-01-06T06:17:46;1.83;;;1.30;;
20649;SDS011;10484;48.736;9.332;2024-01-06T06:20:12;1.53;;;1.23;;
20649;SDS011;10484;48.736;9.332;2024-01-06T06:22:37;5.33;;;2.00;;
20649;SDS011;10484;48.736;9.332;2024-01-06T06:25:03;3.43;;;1.60;;
20649;SDS011;10484;48.736;9.332;2024-01-06T06:27:29;2.13;;;1.93;;
20649;SDS011;10484;48.736;9.332;2024-01-06T06:29:55;1.53;;;1.40;;
20649;SDS011;10484;48.736;9.332;2024-01-06T06:32:21;2.95;;;1.30;;
20649;SDS011;10484;48.736;9.332;2024-01-06T06:34:47;2.10;;;1.33;;
20649;SDS011;10484;48.736;9.332;2024-01-06T06:37:12;3.00;;;2.03;;
20649;SDS011;10484;48.736;9.332;2024-01-06T06:39:38;3.80;;;1.60;;
20649;SDS011;10484;48.736;9.332;2024-01-06T06:42:03;3.10;;;1.40;;
20649;SDS011;10484;48.736;9.332;2024-01-06T06:44:29;3.30;;;2.23;;
20649;SDS011;10484;48.736;9.332;2024-01-06T06:46:55;3.80;;;1.60;;
20649;SDS011;10484;48.736;9.332;2024-01-06T06:49:21;3.00;;;1.40;;
20649;SDS011;10484;48.736;9.332;2024-01-06T06:51:47;3.13;;;1.70;;
20649;SDS011;10484;48.736;9.332;2024-01-06T06:54:13;4.10;;;1.20;;
20649;SDS011;10484;48.736;9.332;2024-01-06T06:56:40;2.58;;;1.42;;
20649;SDS011;10484;48.736;9.332;2024-01-06T06:59:07;2.47;;;1.70;;
20649;SDS011;10484;48.736;9.332;2024-01-06T07:01:32;2.90;;;1.60;;
20649;SDS011;10484;48.736;9.332;2024-01-06T07:03:59;2.25;;;1.55;;
20649;SDS011;10484;48.736;9.332;2024-01-06T07:06:24;3.83;;;1.47;;
20649;SDS011;10484;48.736;9.332;2024-01-06T07:08:50;3.73;;;1.63;;
20649;SDS011;10484;48.736;9.332;2024-01-06T07:11:15;3.73;;;1.30;;
20649;SDS011;10484;48.736;9.332;2024-01-06T07:13:43;1.90;;;1.48;;
20649;SDS011;10484;48.736;9.332;2024-01-06T07:16:09;1.60;;;1.50;;
20649;SDS011;10484;48.736;9.332;2024-01-06T07:18:34;3.93;;;1.37;;
20649;SDS011;10484;48.736;9.332;2024-01-06T07:21:00;4.60;;;1.47;;
20649;SDS011;10484;48.736;9.332;2024-01-06T07:23:29;5.70;;;1.70;;
20649;SDS011;10484;48.736;9.332;2024-01-06T07:25:55;2.22;;;1.48;;
20649;SDS011;10484;48.736;9.332;2024-01-06T07:28:20;3.63;;;1.88;;
20649;SDS011;10484;48.736;9.332;2024-01-06T07:30:46;3.10;;;1.63;;
20649;SDS011;10484;48.736;9.332;2024-01-06T07:33:12;2.60;;;1.43;;
20649;SDS011;10484;48.736;9.332;2024-01-06T07:35:38;2.63;;;1.75;;
20649;SDS011;10484;48.736;9.332;2024-01-06T07:38:08;4.20;;;1.25;;
20649;SDS011;10484;48.736;9.332;2024-01-06T07:40:35;2.63;;;1.63;;
20649;SDS011;10484;48.736;9.332;2024-01-06T07:43:04;2.55;;;1.40;;
20649;SDS011;10484;48.736;9.332;2024-01-06T07:45:30;2.57;;;1.80;;
20649;SDS011;10484;48.736;9.332;2024-01-06T07:47:58;5.68;;;1.90;;
20649;SDS011;10484;48.736;9.332;2024-01-06T07:50:24;3.27;;;1.57;;
20649;SDS011;10484;48.736;9.332;2024-01-06T07:52:50;1.83;;;1.60;;
20649;SDS011;10484;48.736;9.332;2024-01-06T07:55:15;2.73;;;1.53;;
20649;SDS011;10484;48.736;9.332;2024-01-06T07:57:43;5.35;;;2.05;;
20649;SDS011;10484;48.736;9.332;2024-01-06T08:00:09;3.33;;;1.80;;
20649;SDS011;10484;48.736;9.332;2024-01-06T08:02:35;3.83;;;1.75;;
20649;SDS011;10484;48.736;9.332;2024-01-06T08:05:01;1.97;;;1.77;;
20649;SDS011;10484;48.736;9.332;2024-01-06T08:07:26;4.37;;;2.00;;
20649;SDS011;10484;48.736;9.332;2024-01-06T08:09:52;3.17;;;2.30;;
20649;SDS011;10484;48.736;9.332;2024-01-06T08:12:17;2.53;;;2.33;;
20649;SDS011;10484;48.736;9.332;2024-01-06T08:14:43;2.07;;;1.43;;
20649;SDS011;10484;48.736;9.332;2024-01-06T08:17:08;2.10;;;1.70;;
20649;SDS011;10484;48.736;9.332;2024-01-06T08:19:34;4.73;;;1.70;;
20649;SDS011;10484;48.736;9.332;2024-01-06T08:22:00;2.70;;;2.00;;
20649;SDS011;10484;48.736;9.332;2024-01-06T08:24:26;3.13;;;2.20;;
20649;SDS011;10484;48.736;9.332;2024-01-06T08:26:52;3.97;;;2.10;;
20649;SDS011;10484;48.736;9.332;2024-01-06T08:29:17;2.50;;;2.00;;
20649;SDS011;10484;48.736;9.332;2024-01-06T08:31:44;2.38;;;2.05;;
20649;SDS011;10484;48.736;9.332;2024-01-06T08:34:10;3.37;;;2.40;;
20649;SDS011;10484;48.736;9.332;2024-01-06T08:36:36;2.93;;;2.20;;
20649;SDS011;10484;48.736;9.332;2024-01-06T08:39:01;4.53;;;2.00;;
20649;SDS011;10484;48.736;9.332;2024-01-06T08:41:27;2.50;;;1.40;;
20649;SDS011;10484;48.736;9.332;2024-01-06T08:43:53;4.00;;;1.93;;
20649;SDS011;10484;48.736;9.332;2024-01-06T08:46:19;5.13;;;1.80;;
20649;SDS011;10484;48.736;9.332;2024-01-06T08:48:44;3.10;;;1.90;;
20649;SDS011;10484;48.736;9.332;2024-01-06T08:51:10;6.00;;;2.60;;
20649;SDS011;10484;48.736;9.332;2024-01-06T08:53:35;5.37;;;3.70;;
20649;SDS011;10484;48.736;9.332;2024-01-06T08:56:01;3.60;;;3.07;;
20649;SDS011;10484;48.736;9.332;2024-01-06T08:58:27;5.50;;;3.60;;
20649;SDS011;10484;48.736;9.332;2024-01-06T09:00:52;6.20;;;3.33;;
20649;SDS011;10484;48.736;9.332;2024-01-06T09:03:18;4.20;;;3.80;;
20649;SDS011;10484;48.736;9.332;2024-01-06T09:05:50;6.28;;;3.75;;
20649;SDS011;10484;48.736;9.332;2024-01-06T09:08:16;3.50;;;3.20;;
20649;SDS011;10484;48.736;9.332;2024-01-06T09:10:42;5.20;;;3.43;;
20649;SDS011;10484;48.736;9.332;2024-01-06T09:13:08;6.43;;;4.57;;
20649;SDS011;10484;48.736;9.332;2024-01-06T09:15:33;6.67;;;5.00;;
20649;SDS011;10484;48.736;9.332;2024-01-06T09:17:59;6.90;;;4.87;;
20649;SDS011;10484;48.736;9.332;2024-01-06T09:20:25;3.73;;;3.43;;
20649;SDS011;10484;48.736;9.332;2024-01-06T09:22:52;5.75;;;3.35;;
20649;SDS011;10484;48.736;9.332;2024-01-06T09:25:18;4.30;;;3.87;;
20649;SDS011;10484;48.736;9.332;2024-01-06T09:27:43;4.93;;;3.20;;
20649;SDS011;10484;48.736;9.332;2024-01-06T09:30:09;5.77;;;4.00;;
20649;SDS011;10484;48.736;9.332;2024-01-06T09:32:35;4.33;;;3.80;;
20649;SDS011;10484;48.736;9.332;2024-01-06T09:35:00;5.10;;;3.27;;
20649;SDS011;10484;48.736;9.332;2024-01-06T09:37:26;5.43;;;3.53;;
20649;SDS011;10484;48.736;9.332;2024-01-06T09:39:52;3.10;;;2.80;;
20649;SDS011;10484;48.736;9.332;2024-01-06T09:42:17;2.63;;;2.43;;
20649;SDS011;10484;48.736;9.332;2024-01-06T09:44:43;3.30;;;2.77;;
20649;SDS011;10484;48.736;9.332;2024-01-06T09:47:09;3.97;;;2.65;;
20649;SDS011;10484;48.736;9.332;2024-01-06T09:49:38;4.13;;;3.28;;
20649;SDS011;10484;48.736;9.332;2024-01-06T09:52:08;6.13;;;3.38;;
20649;SDS011;10484;48.736;9.332;2024-01-06T09:54:41;6.90;;;3.22;;
20649;SDS011;10484;48.736;9.332;2024-01-06T09:57:15;3.67;;;2.85;;
20649;SDS011;10484;48.736;9.332;2024-01-06T09:59:41;4.90;;;3.30;;
20649;SDS011;10484;48.736;9.332;2024-01-06T10:02:09;5.63;;;3.50;;
20649;SDS011;10484;48.736;9.332;2024-01-06T10:04:39;3.90;;;3.40;;
20649;SDS011;10484;48.736;9.332;2024-01-06T10:07:05;3.17;;;2.60;;
20649;SDS011;10484;48.736;9.332;2024-01-06T10:09:30;4.10;;;3.17;;
20649;SDS011;10484;48.736;9.332;2024-01-06T10:11:57;3.88;;;3.33;;
20649;SDS011;10484;48.736;9.332;2024-01-06T10:14:24;4.28;;;2.75;;
20649;SDS011;10484;48.736;9.332;2024-01-06T10:16:51;3.13;;;2.50;;
20649;SDS011;10484;48.736;9.332;2024-01-06T10:19:17;4.78;;;3.20;;
20649;SDS011;10484;48.736;9.332;2024-01-06T10:21:43;3.30;;;3.00;;
20649;SDS011;10484;48.736;9.332;2024-01-06T10:24:09;2.55;;;2.35;;
20649;SDS011;10484;48.736;9.332;2024-01-06T10:26:35;3.13;;;2.37;;
20649;SDS011;10484;48.736;9.332;2024-01-06T10:29:01;3.73;;;2.50;;
20649;SDS011;10484;48.736;9.332;2024-01-06T10:31:27;3.00;;;2.70;;
20649;SDS011;10484;48.736;9.332;2024-01-06T10:33:54;3.05;;;2.75;;
20649;SDS011;10484;48.736;9.332;2024-01-06T10:36:20;4.47;;;3.00;;
20649;SDS011;10484;48.736;9.332;2024-01-06T10:38:47;2.72;;;2.53;;
20649;SDS011;10484;48.736;9.332;2024-01-06T10:41:13;1.92;;;1.83;;
20649;SDS011;10484;48.736;9.332;2024-01-06T10:43:41;2.63;;;2.42;;
20649;SDS011;10484;48.736;9.332;2024-01-06T10:46:08;3.15;;;2.70;;
20649;SDS011;10484;48.736;9.332;2024-01-06T10:48:36;4.40;;;2.50;;
20649;SDS011;10484;48.736;9.332;2024-01-06T10:51:10;2.85;;;2.25;;
20649;SDS011;10484;48.736;9.332;2024-01-06T10:53:36;3.45;;;2.55;;
20649;SDS011;10484;48.736;9.332;2024-01-06T10:56:04;2.45;;;2.25;;
20649;SDS011;10484;48.736;9.332;2024-01-06T10:58:33;2.25;;;2.10;;
20649;SDS011;10484;48.736;9.332;2024-01-06T11:01:08;2.13;;;1.92;;
20649;SDS011;10484;48.736;9.332;2024-01-06T11:03:37;2.85;;;2.40;;
20649;SDS011;10484;48.736;9.332;2024-01-06T11:06:04;2.67;;;2.47;;
20649;SDS011;10484;48.736;9.332;2024-01-06T11:08:32;2.30;;;2.08;;
20649;SDS011;10484;48.736;9.332;2024-01-06T11:11:00;3.25;;;2.35;;
20649;SDS011;10484;48.736;9.332;2024-01-06T11:13:27;2.50;;;2.30;;
20649;SDS011;10484;48.736;9.332;2024-01-06T11:15:53;2.42;;;2.20;;
20649;SDS011;10484;48.736;9.332;2024-01-06T11:18:32;3.17;;;2.87;;
20649;SDS011;10484;48.736;9.332;2024-01-06T11:23:42;3.03;;;2.75;;
20649;SDS011;10484;48.736;9.332;2024-01-06T11:26:08;3.13;;;2.83;;
20649;SDS011;10484;48.736;9.332;2024-01-06T11:28:47;3.17;;;2.92;;
20649;SDS011;10484;48.736;9.332;2024-01-06T11:31:16;4.05;;;3.10;;
20649;SDS011;10484;48.736;9.332;2024-01-06T11:33:45;3.40;;;3.10;;
20649;SDS011;10484;48.736;9.332;2024-01-06T11:36:14;5.03;;;4.53;;
20649;SDS011;10484;48.736;9.332;2024-01-06T11:38:40;5.72;;;4.15;;
20649;SDS011;10484;48.736;9.332;2024-01-06T11:41:07;4.90;;;3.50;;
20649;SDS011;10484;48.736;9.332;2024-01-06T11:43:34;2.70;;;2.50;;
20649;SDS011;10484;48.736;9.332;2024-01-06T11:46:01;2.63;;;2.42;;
20649;SDS011;10484;48.736;9.332;2024-01-06T11:48:29;2.95;;;2.65;;
20649;SDS011;10484;48.736;9.332;2024-01-06T11:50:54;5.77;;;2.80;;
20649;SDS011;10484;48.736;9.332;2024-01-06T11:53:21;3.25;;;2.20;;
20649;SDS011;10484;48.736;9.332;2024-01-06T11:55:50;2.33;;;2.13;;
20649;SDS011;10484;48.736;9.332;2024-01-06T11:58:17;2.08;;;1.60;;
20649;SDS011;10484;48.736;9.332;2024-01-06T12:00:42;3.50;;;1.60;;
20649;SDS011;10484;48.736;9.332;2024-01-06T12:03:09;1.63;;;1.52;;
20649;SDS011;10484;48.736;9.332;2024-01-06T12:05:35;2.10;;;1.50;;
20649;SDS011;10484;48.736;9.332;2024-01-06T12:08:01;1.93;;;1.70;;
20649;SDS011;10484;48.736;9.332;2024-01-06T12:10:32;2.30;;;2.10;;
20649;SDS011;10484;48.736;9.332;2024-01-06T12:12:59;2.28;;;2.08;;
20649;SDS011;10484;48.736;9.332;2024-01-06T12:15:30;2.65;;;2.17;;
20649;SDS011;10484;48.736;9.332;2024-01-06T12:17:56;3.17;;;2.30;;
20649;SDS011;10484;48.736;9.332;2024-01-06T12:20:23;2.97;;;2.43;;
20649;SDS011;10484;48.736;9.332;2024-01-06T12:22:52;2.45;;;2.25;;
20649;SDS011;10484;48.736;9.332;2024-01-06T12:25:18;3.15;;;2.70;;
20649;SDS011;10484;48.736;9.332;2024-01-06T12:27:46;3.15;;;2.85;;
20649;SDS011;10484;48.736;9.332;2024-01-06T12:30:13;3.90;;;3.25;;
20649;SDS011;10484;48.736;9.332;2024-01-06T12:32:44;3.40;;;3.10;;
20649;SDS011;10484;48.736;9.332;2024-01-06T12:35:19;3.35;;;3.05;;
20649;SDS011;10484;48.736;9.332;2024-01-06T12:37:45;3.70;;;3.33;;
20649;SDS011;10484;48.736;9.332;2024-01-06T12:40:15;3.63;;;3.33;;
20649;SDS011;10484;48.736;9.332;2024-01-06T12:42:42;3.28;;;3.08;;
20649;SDS011;10484;48.736;9.332;2024-01-06T12:45:08;3.47;;;3.05;;
20649;SDS011;10484;48.736;9.332;2024-01-06T12:47:35;3.88;;;3.45;;
20649;SDS011;10484;48.736;9.332;2024-01-06T12:50:00;3.80;;;3.50;;
20649;SDS011;10484;48.736;9.332;2024-01-06T12:52:26;4.50;;;4.10;;
20649;SDS011;10484;48.736;9.332;2024-01-06T12:54:52;3.20;;;2.90;;
20649;SDS011;10484;48.736;9.332;2024-01-06T12:57:17;4.23;;;3.93;;
20649;SDS011;10484;48.736;9.332;2024-01-06T12:59:43;3.47;;;3.17;;
20649;SDS011;10484;48.736;9.332;2024-01-06T13:02:09;3.23;;;2.97;;
20649;SDS011;10484;48.736;9.332;2024-01-06T13:04:34;3.87;;;3.47;;
20649;SDS011;10484;48.736;9.332;2024-01-06T13:07:00;3.47;;;3.20;;
20649;SDS011;10484;48.736;9.332;2024-01-06T13:09:26;4.17;;;3.83;;
20649;SDS011;10484;48.736;9.332;2024-01-06T13:11:52;4.33;;;3.93;;
20649;SDS011;10484;48.736;9.332;2024-01-06T13:14:20;3.20;;;2.90;;
20649;SDS011;10484;48.736;9.332;2024-01-06T13:16:46;3.63;;;3.33;;
20649;SDS011;10484;48.736;9.332;2024-01-06T13:19:11;4.40;;;3.30;;
20649;SDS011;10484;48.736;9.332;2024-01-06T13:21:37;3.80;;;3.50;;
20649;SDS011;10484;48.736;9.332;2024-01-06T13:24:04;4.10;;;3.23;;
20649;SDS011;10484;48.736;9.332;2024-01-06T13:26:31;4.50;;;4.10;;
20649;SDS011;10484;48.736;9.332;2024-01-06T13:28:57;4.00;;;3.70;;
20649;SDS011;10484;48.736;9.332;2024-01-06T13:31:22;4.20;;;3.83;;
20649;SDS011;10484;48.736;9.332;2024-01-06T13:33:48;5.47;;;4.97;;
20649;SDS011;10484;48.736;9.332;2024-01-06T13:36:16;4.55;;;4.15;;
20649;SDS011;10484;48.736;9.332;2024-01-06T13:38:43;5.37;;;4.93;;
20649;SDS011;10484;48.736;9.332;2024-01-06T13:41:08;4.93;;;4.53;;
20649;SDS011;10484;48.736;9.332;2024-01-06T13:43:34;6.10;;;5.50;;
20649;SDS011;10484;48.736;9.332;2024-01-06T13:46:00;6.63;;;5.70;;
20649;SDS011;10484;48.736;9.332;2024-01-06T13:48:26;6.60;;;5.33;;
20649;SDS011;10484;48.736;9.332;2024-01-06T13:50:52;5.47;;;4.97;;
20649;SDS011;10484;48.736;9.332;2024-01-06T13:53:18;5.13;;;4.63;;
20649;SDS011;10484;48.736;9.332;2024-01-06T13:55:43;5.97;;;5.37;;
20649;SDS011;10484;48.736;9.332;2024-01-06T13:58:09;5.77;;;5.27;;
20649;SDS011;10484;48.736;9.332;2024-01-06T14:00:35;5.00;;;4.60;;
20649;SDS011;10484;48.736;9.332;2024-01-06T14:03:01;5.70;;;5.20;;
20649;SDS011;10484;48.736;9.332;2024-01-06T14:05:28;6.40;;;5.80;;
20649;SDS011;10484;48.736;9.332;2024-01-06T14:07:53;5.97;;;5.40;;
20649;SDS011;10484;48.736;9.332;2024-01-06T14:10:19;7.43;;;6.73;;
20649;SDS011;10484;48.736;9.332;2024-01-06T14:12:45;6.57;;;5.97;;
20649;SDS011;10484;48.736;9.332;2024-01-06T14:15:11;7.80;;;5.50;;
20649;SDS011;10484;48.736;9.332;2024-01-06T14:17:37;6.40;;;5.80;;
20649;SDS011;10484;48.736;9.332;2024-01-06T14:20:04;6.28;;;5.78;;
20649;SDS011;10484;48.736;9.332;2024-01-06T14:22:30;6.18;;;5.60;;
20649;SDS011;10484;48.736;9.332;2024-01-06T14:24:55;7.00;;;6.40;;
20649;SDS011;10484;48.736;9.332;2024-01-06T14:27:21;9.90;;;6.83;;
20649;SDS011;10484;48.736;9.332;2024-01-06T14:29:47;6.20;;;5.70;;
20649;SDS011;10484;48.736;9.332;2024-01-06T14:32:13;6.00;;;5.50;;
20649;SDS011;10484;48.736;9.332;2024-01-06T14:34:39;5.90;;;5.30;;
20649;SDS011;10484;48.736;9.332;2024-01-06T14:37:04;6.03;;;5.43;;
20649;SDS011;10484;48.736;9.332;2024-01-06T14:39:30;6.70;;;6.00;;
20649;SDS011;10484;48.736;9.332;2024-01-06T14:41:56;6.53;;;5.73;;
20649;SDS011;10484;48.736;9.332;2024-01-06T14:44:21;6.87;;;6.23;;